Jay, Florida
Current Conditions -  °F | °C
As of 11:56 PM on Tuesday 25 Nov 2014 (Local Time) from KNSE Reporting Station
Few Clouds Few Clouds  
Wind Chill: 45°   Ceiling: Unl
Heat Index: 49°   Visibility: 10mi
Dew Point: 32°   Wind: 9mph
Humidity: 52%   Direction: 320°NW
Pressure: 30.1"   Gusts: NA
Location:  30.95°N, 87.15°W
Report Text: KNSE 260556Z AUTO 32008KT 10SM FEW090 09/00 A3010 RMK AO2 SLP180 60000 T00940000 10128 20094 401440094 55003 $
Loading
Personal Weather Stations






























Interactive Weather Map New forecast layout! Learn more

10-Day Weather Forecast

Advertisements
Track Severe Weather on mobile